sensor_id;sensor_type;location;lat;lon;timestamp;P1;durP1;ratioP1;P2;durP2;ratioP2
7477;SDS011;3780;42.424;25.636;2023-07-31T00:00:26;1.88;;;1.30;;
7477;SDS011;3780;42.424;25.636;2023-07-31T00:02:51;3.13;;;1.30;;
7477;SDS011;3780;42.424;25.636;2023-07-31T00:05:17;1.85;;;1.30;;
7477;SDS011;3780;42.424;25.636;2023-07-31T00:07:42;3.92;;;1.17;;
7477;SDS011;3780;42.424;25.636;2023-07-31T00:10:07;2.75;;;1.25;;
7477;SDS011;3780;42.424;25.636;2023-07-31T00:12:33;2.10;;;1.25;;
7477;SDS011;3780;42.424;25.636;2023-07-31T00:14:58;1.83;;;1.15;;
7477;SDS011;3780;42.424;25.636;2023-07-31T00:17:23;3.80;;;1.10;;
7477;SDS011;3780;42.424;25.636;2023-07-31T00:19:49;3.17;;;1.35;;
7477;SDS011;3780;42.424;25.636;2023-07-31T00:22:15;2.90;;;1.40;;
7477;SDS011;3780;42.424;25.636;2023-07-31T00:24:41;2.05;;;1.10;;
7477;SDS011;3780;42.424;25.636;2023-07-31T00:27:06;2.08;;;1.30;;
7477;SDS011;3780;42.424;25.636;2023-07-31T00:29:31;1.65;;;1.15;;
7477;SDS011;3780;42.424;25.636;2023-07-31T00:31:56;3.88;;;1.30;;
7477;SDS011;3780;42.424;25.636;2023-07-31T00:34:22;2.45;;;1.60;;
7477;SDS011;3780;42.424;25.636;2023-07-31T00:36:47;1.85;;;1.30;;
7477;SDS011;3780;42.424;25.636;2023-07-31T00:39:12;3.50;;;1.23;;
7477;SDS011;3780;42.424;25.636;2023-07-31T00:41:38;2.78;;;1.35;;
7477;SDS011;3780;42.424;25.636;2023-07-31T00:44:03;3.38;;;1.40;;
7477;SDS011;3780;42.424;25.636;2023-07-31T00:46:28;1.80;;;1.13;;
7477;SDS011;3780;42.424;25.636;2023-07-31T00:48:53;3.97;;;1.17;;
7477;SDS011;3780;42.424;25.636;2023-07-31T00:51:19;4.43;;;1.50;;
7477;SDS011;3780;42.424;25.636;2023-07-31T00:53:44;2.63;;;1.48;;
7477;SDS011;3780;42.424;25.636;2023-07-31T00:56:10;1.95;;;1.17;;
7477;SDS011;3780;42.424;25.636;2023-07-31T00:58:36;2.03;;;1.30;;
7477;SDS011;3780;42.424;25.636;2023-07-31T01:01:01;3.75;;;1.38;;
7477;SDS011;3780;42.424;25.636;2023-07-31T01:03:26;1.85;;;1.10;;
7477;SDS011;3780;42.424;25.636;2023-07-31T01:05:55;3.35;;;1.38;;
7477;SDS011;3780;42.424;25.636;2023-07-31T01:09:06;2.20;;;1.38;;
7477;SDS011;3780;42.424;25.636;2023-07-31T01:11:27;2.05;;;1.58;;
7477;SDS011;3780;42.424;25.636;2023-07-31T01:13:53;2.50;;;1.60;;
7477;SDS011;3780;42.424;25.636;2023-07-31T01:16:19;10.25;;;5.28;;
7477;SDS011;3780;42.424;25.636;2023-07-31T01:18:44;3.28;;;1.67;;
7477;SDS011;3780;42.424;25.636;2023-07-31T01:21:25;3.05;;;1.67;;
7477;SDS011;3780;42.424;25.636;2023-07-31T01:26:23;4.60;;;1.60;;
7477;SDS011;3780;42.424;25.636;2023-07-31T01:31:25;4.60;;;1.92;;
7477;SDS011;3780;42.424;25.636;2023-07-31T01:33:53;2.15;;;1.60;;
7477;SDS011;3780;42.424;25.636;2023-07-31T01:36:19;6.72;;;5.30;;
7477;SDS011;3780;42.424;25.636;2023-07-31T01:38:44;5.22;;;3.85;;
7477;SDS011;3780;42.424;25.636;2023-07-31T01:41:09;3.05;;;1.63;;
7477;SDS011;3780;42.424;25.636;2023-07-31T01:43:35;2.30;;;1.42;;
7477;SDS011;3780;42.424;25.636;2023-07-31T01:46:00;4.85;;;2.25;;
7477;SDS011;3780;42.424;25.636;2023-07-31T01:48:25;7.15;;;2.63;;
7477;SDS011;3780;42.424;25.636;2023-07-31T01:50:51;4.20;;;2.38;;
7477;SDS011;3780;42.424;25.636;2023-07-31T01:53:16;3.13;;;1.80;;
7477;SDS011;3780;42.424;25.636;2023-07-31T01:55:42;5.25;;;1.90;;
7477;SDS011;3780;42.424;25.636;2023-07-31T01:58:07;4.57;;;2.70;;
7477;SDS011;3780;42.424;25.636;2023-07-31T02:00:33;3.90;;;2.25;;
7477;SDS011;3780;42.424;25.636;2023-07-31T02:02:59;9.63;;;4.18;;
7477;SDS011;3780;42.424;25.636;2023-07-31T02:05:24;7.55;;;2.63;;
7477;SDS011;3780;42.424;25.636;2023-07-31T02:07:49;2.70;;;1.50;;
7477;SDS011;3780;42.424;25.636;2023-07-31T02:10:15;4.93;;;1.45;;
7477;SDS011;3780;42.424;25.636;2023-07-31T02:12:40;4.13;;;1.80;;
7477;SDS011;3780;42.424;25.636;2023-07-31T02:15:05;3.35;;;1.48;;
7477;SDS011;3780;42.424;25.636;2023-07-31T02:17:31;3.25;;;1.40;;
7477;SDS011;3780;42.424;25.636;2023-07-31T02:19:56;3.42;;;1.40;;
7477;SDS011;3780;42.424;25.636;2023-07-31T02:22:21;5.70;;;1.77;;
7477;SDS011;3780;42.424;25.636;2023-07-31T02:24:47;2.75;;;1.38;;
7477;SDS011;3780;42.424;25.636;2023-07-31T02:27:12;2.90;;;1.58;;
7477;SDS011;3780;42.424;25.636;2023-07-31T02:29:37;4.65;;;2.00;;
7477;SDS011;3780;42.424;25.636;2023-07-31T02:32:03;3.40;;;1.83;;
7477;SDS011;3780;42.424;25.636;2023-07-31T02:34:28;11.43;;;5.30;;
7477;SDS011;3780;42.424;25.636;2023-07-31T02:36:53;6.43;;;2.58;;
7477;SDS011;3780;42.424;25.636;2023-07-31T02:39:19;8.32;;;3.10;;
7477;SDS011;3780;42.424;25.636;2023-07-31T02:41:44;5.40;;;2.90;;
7477;SDS011;3780;42.424;25.636;2023-07-31T02:44:09;6.20;;;2.78;;
7477;SDS011;3780;42.424;25.636;2023-07-31T02:46:35;8.23;;;2.90;;
7477;SDS011;3780;42.424;25.636;2023-07-31T02:49:00;8.18;;;2.50;;
7477;SDS011;3780;42.424;25.636;2023-07-31T02:51:26;3.60;;;1.83;;
7477;SDS011;3780;42.424;25.636;2023-07-31T02:53:51;8.32;;;1.80;;
7477;SDS011;3780;42.424;25.636;2023-07-31T02:56:16;4.28;;;1.95;;
7477;SDS011;3780;42.424;25.636;2023-07-31T02:58:42;5.55;;;1.98;;
7477;SDS011;3780;42.424;25.636;2023-07-31T03:01:07;5.10;;;1.80;;
7477;SDS011;3780;42.424;25.636;2023-07-31T03:03:32;6.57;;;1.92;;
7477;SDS011;3780;42.424;25.636;2023-07-31T03:05:58;5.70;;;2.33;;
7477;SDS011;3780;42.424;25.636;2023-07-31T03:08:23;5.75;;;2.00;;
7477;SDS011;3780;42.424;25.636;2023-07-31T03:10:49;7.35;;;1.85;;
7477;SDS011;3780;42.424;25.636;2023-07-31T03:13:14;10.35;;;2.08;;
7477;SDS011;3780;42.424;25.636;2023-07-31T03:15:41;5.20;;;1.95;;
7477;SDS011;3780;42.424;25.636;2023-07-31T03:18:07;7.95;;;2.15;;
7477;SDS011;3780;42.424;25.636;2023-07-31T03:20:32;7.20;;;2.80;;
7477;SDS011;3780;42.424;25.636;2023-07-31T03:22:57;8.82;;;2.72;;
7477;SDS011;3780;42.424;25.636;2023-07-31T03:25:22;12.82;;;3.10;;
7477;SDS011;3780;42.424;25.636;2023-07-31T03:27:48;7.60;;;3.40;;
7477;SDS011;3780;42.424;25.636;2023-07-31T03:30:13;4.72;;;1.92;;
7477;SDS011;3780;42.424;25.636;2023-07-31T03:32:38;4.60;;;2.38;;
7477;SDS011;3780;42.424;25.636;2023-07-31T03:35:04;5.43;;;1.75;;
7477;SDS011;3780;42.424;25.636;2023-07-31T03:37:30;5.38;;;1.90;;
7477;SDS011;3780;42.424;25.636;2023-07-31T03:39:55;7.13;;;2.25;;
7477;SDS011;3780;42.424;25.636;2023-07-31T03:42:21;10.48;;;1.98;;
7477;SDS011;3780;42.424;25.636;2023-07-31T03:44:46;6.15;;;2.20;;
7477;SDS011;3780;42.424;25.636;2023-07-31T03:47:11;6.10;;;2.80;;
7477;SDS011;3780;42.424;25.636;2023-07-31T03:49:36;11.90;;;3.35;;
7477;SDS011;3780;42.424;25.636;2023-07-31T03:52:02;5.10;;;1.98;;
7477;SDS011;3780;42.424;25.636;2023-07-31T03:54:27;11.93;;;2.00;;
7477;SDS011;3780;42.424;25.636;2023-07-31T03:56:52;3.33;;;1.85;;
7477;SDS011;3780;42.424;25.636;2023-07-31T03:59:18;6.50;;;1.85;;
7477;SDS011;3780;42.424;25.636;2023-07-31T04:01:43;9.50;;;2.42;;
7477;SDS011;3780;42.424;25.636;2023-07-31T04:04:08;5.75;;;1.92;;
7477;SDS011;3780;42.424;25.636;2023-07-31T04:06:33;18.40;;;4.82;;
7477;SDS011;3780;42.424;25.636;2023-07-31T04:08:59;15.90;;;6.07;;
7477;SDS011;3780;42.424;25.636;2023-07-31T04:11:24;10.18;;;4.20;;
7477;SDS011;3780;42.424;25.636;2023-07-31T04:13:49;12.27;;;4.10;;
7477;SDS011;3780;42.424;25.636;2023-07-31T04:16:15;18.05;;;5.40;;
7477;SDS011;3780;42.424;25.636;2023-07-31T04:18:40;11.80;;;5.82;;
7477;SDS011;3780;42.424;25.636;2023-07-31T04:21:05;16.58;;;5.50;;
7477;SDS011;3780;42.424;25.636;2023-07-31T04:23:31;20.40;;;7.00;;
7477;SDS011;3780;42.424;25.636;2023-07-31T04:25:56;15.55;;;7.32;;
7477;SDS011;3780;42.424;25.636;2023-07-31T04:28:21;20.92;;;5.07;;
7477;SDS011;3780;42.424;25.636;2023-07-31T04:30:47;8.70;;;5.13;;
7477;SDS011;3780;42.424;25.636;2023-07-31T04:33:12;13.27;;;4.85;;
7477;SDS011;3780;42.424;25.636;2023-07-31T04:35:37;8.30;;;4.15;;
7477;SDS011;3780;42.424;25.636;2023-07-31T04:38:02;12.75;;;6.65;;
7477;SDS011;3780;42.424;25.636;2023-07-31T04:40:28;12.75;;;7.78;;
7477;SDS011;3780;42.424;25.636;2023-07-31T04:42:53;22.48;;;10.82;;
7477;SDS011;3780;42.424;25.636;2023-07-31T04:45:18;11.80;;;5.57;;
7477;SDS011;3780;42.424;25.636;2023-07-31T04:47:44;11.05;;;3.38;;
7477;SDS011;3780;42.424;25.636;2023-07-31T04:50:09;9.25;;;3.78;;
7477;SDS011;3780;42.424;25.636;2023-07-31T04:52:34;10.15;;;3.60;;
7477;SDS011;3780;42.424;25.636;2023-07-31T04:55:00;11.10;;;4.45;;
7477;SDS011;3780;42.424;25.636;2023-07-31T04:57:25;10.43;;;5.55;;
7477;SDS011;3780;42.424;25.636;2023-07-31T04:59:50;7.68;;;3.67;;
7477;SDS011;3780;42.424;25.636;2023-07-31T05:02:15;10.93;;;3.35;;
7477;SDS011;3780;42.424;25.636;2023-07-31T05:04:41;16.98;;;3.53;;
7477;SDS011;3780;42.424;25.636;2023-07-31T05:07:06;13.30;;;6.03;;
7477;SDS011;3780;42.424;25.636;2023-07-31T05:09:31;23.50;;;10.77;;
7477;SDS011;3780;42.424;25.636;2023-07-31T05:11:57;10.95;;;5.90;;
7477;SDS011;3780;42.424;25.636;2023-07-31T05:14:22;19.50;;;6.47;;
7477;SDS011;3780;42.424;25.636;2023-07-31T05:16:47;12.10;;;5.13;;
7477;SDS011;3780;42.424;25.636;2023-07-31T05:19:13;21.35;;;9.30;;
7477;SDS011;3780;42.424;25.636;2023-07-31T05:21:38;26.88;;;7.85;;
7477;SDS011;3780;42.424;25.636;2023-07-31T05:24:03;10.70;;;3.67;;
7477;SDS011;3780;42.424;25.636;2023-07-31T05:26:28;5.78;;;2.47;;
7477;SDS011;3780;42.424;25.636;2023-07-31T05:28:54;8.65;;;3.00;;
7477;SDS011;3780;42.424;25.636;2023-07-31T05:31:19;8.13;;;3.47;;
7477;SDS011;3780;42.424;25.636;2023-07-31T05:33:45;12.60;;;4.07;;
7477;SDS011;3780;42.424;25.636;2023-07-31T05:36:11;13.40;;;3.67;;
7477;SDS011;3780;42.424;25.636;2023-07-31T05:38:36;14.85;;;3.35;;
7477;SDS011;3780;42.424;25.636;2023-07-31T05:41:01;14.85;;;3.92;;
7477;SDS011;3780;42.424;25.636;2023-07-31T05:43:27;10.60;;;4.22;;
7477;SDS011;3780;42.424;25.636;2023-07-31T05:45:52;13.23;;;4.20;;
7477;SDS011;3780;42.424;25.636;2023-07-31T05:48:17;13.13;;;4.95;;
7477;SDS011;3780;42.424;25.636;2023-07-31T05:50:43;13.63;;;4.90;;
7477;SDS011;3780;42.424;25.636;2023-07-31T05:53:09;21.15;;;5.43;;
7477;SDS011;3780;42.424;25.636;2023-07-31T05:55:35;19.88;;;6.28;;
7477;SDS011;3780;42.424;25.636;2023-07-31T05:58:00;26.25;;;11.13;;
7477;SDS011;3780;42.424;25.636;2023-07-31T06:00:26;24.63;;;7.00;;
7477;SDS011;3780;42.424;25.636;2023-07-31T06:02:51;25.38;;;8.73;;
7477;SDS011;3780;42.424;25.636;2023-07-31T06:05:17;20.38;;;9.18;;
7477;SDS011;3780;42.424;25.636;2023-07-31T06:07:42;15.63;;;8.82;;
7477;SDS011;3780;42.424;25.636;2023-07-31T06:10:08;25.33;;;9.90;;
7477;SDS011;3780;42.424;25.636;2023-07-31T06:12:34;16.80;;;8.65;;
7477;SDS011;3780;42.424;25.636;2023-07-31T06:14:59;19.27;;;9.50;;
7477;SDS011;3780;42.424;25.636;2023-07-31T06:17:25;22.23;;;10.32;;
7477;SDS011;3780;42.424;25.636;2023-07-31T06:19:52;24.98;;;12.73;;
7477;SDS011;3780;42.424;25.636;2023-07-31T06:22:18;23.35;;;12.85;;
7477;SDS011;3780;42.424;25.636;2023-07-31T06:24:43;47.53;;;22.00;;
7477;SDS011;3780;42.424;25.636;2023-07-31T06:27:09;23.38;;;10.82;;
7477;SDS011;3780;42.424;25.636;2023-07-31T06:29:35;24.02;;;12.35;;
7477;SDS011;3780;42.424;25.636;2023-07-31T06:32:00;24.10;;;12.60;;
7477;SDS011;3780;42.424;25.636;2023-07-31T06:34:25;21.23;;;12.02;;
7477;SDS011;3780;42.424;25.636;2023-07-31T06:36:51;18.73;;;10.32;;
7477;SDS011;3780;42.424;25.636;2023-07-31T06:39:16;20.67;;;12.82;;
7477;SDS011;3780;42.424;25.636;2023-07-31T06:41:41;21.05;;;11.68;;
7477;SDS011;3780;42.424;25.636;2023-07-31T06:44:07;18.83;;;10.60;;
7477;SDS011;3780;42.424;25.636;2023-07-31T06:46:33;26.23;;;13.02;;
7477;SDS011;3780;42.424;25.636;2023-07-31T13:13:57;8.07;;;5.60;;
7477;SDS011;3780;42.424;25.636;2023-07-31T13:16:23;8.75;;;5.03;;
7477;SDS011;3780;42.424;25.636;2023-07-31T13:18:48;6.55;;;5.13;;
7477;SDS011;3780;42.424;25.636;2023-07-31T13:21:13;6.28;;;5.40;;
7477;SDS011;3780;42.424;25.636;2023-07-31T13:23:38;8.13;;;5.55;;
7477;SDS011;3780;42.424;25.636;2023-07-31T13:26:04;7.57;;;5.38;;
7477;SDS011;3780;42.424;25.636;2023-07-31T13:28:29;8.25;;;5.20;;
7477;SDS011;3780;42.424;25.636;2023-07-31T13:30:54;12.27;;;5.82;;
7477;SDS011;3780;42.424;25.636;2023-07-31T13:33:19;6.15;;;5.43;;
7477;SDS011;3780;42.424;25.636;2023-07-31T13:35:45;5.20;;;4.47;;
7477;SDS011;3780;42.424;25.636;2023-07-31T13:38:10;6.63;;;4.55;;
7477;SDS011;3780;42.424;25.636;2023-07-31T13:40:35;6.78;;;3.72;;
7477;SDS011;3780;42.424;25.636;2023-07-31T13:43:01;3.58;;;3.20;;
7477;SDS011;3780;42.424;25.636;2023-07-31T13:45:26;3.47;;;3.17;;
7477;SDS011;3780;42.424;25.636;2023-07-31T13:47:51;6.53;;;3.72;;
7477;SDS011;3780;42.424;25.636;2023-07-31T13:50:17;11.90;;;4.32;;
7477;SDS011;3780;42.424;25.636;2023-07-31T13:52:44;9.45;;;3.90;;
7477;SDS011;3780;42.424;25.636;2023-07-31T13:55:09;7.05;;;3.63;;
7477;SDS011;3780;42.424;25.636;2023-07-31T13:57:34;8.35;;;3.55;;
7477;SDS011;3780;42.424;25.636;2023-07-31T14:00:00;11.15;;;9.20;;
7477;SDS011;3780;42.424;25.636;2023-07-31T14:02:25;8.70;;;5.97;;
7477;SDS011;3780;42.424;25.636;2023-07-31T14:04:50;13.60;;;11.30;;
7477;SDS011;3780;42.424;25.636;2023-07-31T14:07:16;7.75;;;5.25;;
7477;SDS011;3780;42.424;25.636;2023-07-31T14:09:42;43.55;;;38.90;;
7477;SDS011;3780;42.424;25.636;2023-07-31T14:12:07;49.28;;;43.92;;
7477;SDS011;3780;42.424;25.636;2023-07-31T14:14:33;62.38;;;55.92;;
7477;SDS011;3780;42.424;25.636;2023-07-31T14:16:59;27.27;;;24.45;;
7477;SDS011;3780;42.424;25.636;2023-07-31T14:19:24;16.50;;;13.05;;
7477;SDS011;3780;42.424;25.636;2023-07-31T14:21:50;7.82;;;6.07;;
7477;SDS011;3780;42.424;25.636;2023-07-31T14:24:15;8.68;;;6.10;;
7477;SDS011;3780;42.424;25.636;2023-07-31T14:26:40;9.32;;;5.93;;
7477;SDS011;3780;42.424;25.636;2023-07-31T14:29:05;5.60;;;4.93;;
7477;SDS011;3780;42.424;25.636;2023-07-31T14:31:31;11.15;;;5.82;;
7477;SDS011;3780;42.424;25.636;2023-07-31T14:33:56;12.05;;;5.95;;
7477;SDS011;3780;42.424;25.636;2023-07-31T14:36:22;9.90;;;5.20;;
7477;SDS011;3780;42.424;25.636;2023-07-31T14:38:47;6.03;;;4.60;;
7477;SDS011;3780;42.424;25.636;2023-07-31T14:41:12;8.90;;;4.88;;
7477;SDS011;3780;42.424;25.636;2023-07-31T14:43:38;14.45;;;8.65;;
7477;SDS011;3780;42.424;25.636;2023-07-31T14:46:03;9.68;;;7.93;;
7477;SDS011;3780;42.424;25.636;2023-07-31T14:48:28;6.43;;;5.80;;
7477;SDS011;3780;42.424;25.636;2023-07-31T14:50:54;13.10;;;6.45;;
7477;SDS011;3780;42.424;25.636;2023-07-31T14:53:19;9.57;;;7.90;;
7477;SDS011;3780;42.424;25.636;2023-07-31T14:55:44;12.02;;;7.82;;
7477;SDS011;3780;42.424;25.636;2023-07-31T14:58:10;11.18;;;7.78;;
7477;SDS011;3780;42.424;25.636;2023-07-31T15:00:36;9.85;;;8.13;;
7477;SDS011;3780;42.424;25.636;2023-07-31T15:03:01;12.32;;;8.55;;
7477;SDS011;3780;42.424;25.636;2023-07-31T15:05:27;10.88;;;7.82;;
7477;SDS011;3780;42.424;25.636;2023-07-31T15:07:52;16.17;;;8.20;;
7477;SDS011;3780;42.424;25.636;2023-07-31T15:10:17;11.52;;;6.93;;
7477;SDS011;3780;42.424;25.636;2023-07-31T15:12:42;9.25;;;7.40;;
7477;SDS011;3780;42.424;25.636;2023-07-31T15:15:08;12.20;;;7.75;;
7477;SDS011;3780;42.424;25.636;2023-07-31T15:17:33;12.90;;;7.53;;
7477;SDS011;3780;42.424;25.636;2023-07-31T15:19:59;9.25;;;6.65;;
7477;SDS011;3780;42.424;25.636;2023-07-31T15:22:25;12.15;;;7.32;;
7477;SDS011;3780;42.424;25.636;2023-07-31T15:24:51;15.38;;;7.75;;
7477;SDS011;3780;42.424;25.636;2023-07-31T15:27:16;19.67;;;13.32;;
7477;SDS011;3780;42.424;25.636;2023-07-31T15:29:41;12.57;;;8.80;;
7477;SDS011;3780;42.424;25.636;2023-07-31T15:32:07;9.45;;;8.07;;
7477;SDS011;3780;42.424;25.636;2023-07-31T15:34:32;15.48;;;8.35;;
7477;SDS011;3780;42.424;25.636;2023-07-31T15:36:58;20.95;;;9.40;;
7477;SDS011;3780;42.424;25.636;2023-07-31T15:39:23;21.30;;;9.70;;
7477;SDS011;3780;42.424;25.636;2023-07-31T15:41:48;19.70;;;10.07;;
7477;SDS011;3780;42.424;25.636;2023-07-31T15:44:14;26.45;;;14.45;;
7477;SDS011;3780;42.424;25.636;2023-07-31T15:46:39;15.40;;;10.48;;
7477;SDS011;3780;42.424;25.636;2023-07-31T15:49:04;12.82;;;8.77;;
7477;SDS011;3780;42.424;25.636;2023-07-31T15:51:30;13.48;;;8.38;;
7477;SDS011;3780;42.424;25.636;2023-07-31T15:53:55;13.45;;;8.45;;
7477;SDS011;3780;42.424;25.636;2023-07-31T15:56:20;11.57;;;7.13;;
7477;SDS011;3780;42.424;25.636;2023-07-31T15:58:46;10.80;;;7.53;;
7477;SDS011;3780;42.424;25.636;2023-07-31T16:01:11;11.30;;;6.50;;
7477;SDS011;3780;42.424;25.636;2023-07-31T16:03:37;9.60;;;6.93;;
7477;SDS011;3780;42.424;25.636;2023-07-31T16:06:02;7.43;;;6.40;;
7477;SDS011;3780;42.424;25.636;2023-07-31T16:08:27;7.15;;;6.20;;
7477;SDS011;3780;42.424;25.636;2023-07-31T16:10:53;6.68;;;5.57;;
7477;SDS011;3780;42.424;25.636;2023-07-31T16:13:18;9.02;;;7.55;;
7477;SDS011;3780;42.424;25.636;2023-07-31T16:15:43;8.82;;;6.57;;
7477;SDS011;3780;42.424;25.636;2023-07-31T16:18:09;6.85;;;6.10;;
7477;SDS011;3780;42.424;25.636;2023-07-31T16:20:34;8.40;;;7.43;;
7477;SDS011;3780;42.424;25.636;2023-07-31T16:23:00;10.88;;;8.55;;
7477;SDS011;3780;42.424;25.636;2023-07-31T16:25:25;13.35;;;8.50;;
7477;SDS011;3780;42.424;25.636;2023-07-31T16:27:50;18.25;;;7.82;;
7477;SDS011;3780;42.424;25.636;2023-07-31T16:30:16;18.13;;;10.57;;
7477;SDS011;3780;42.424;25.636;2023-07-31T16:32:41;20.90;;;13.65;;
7477;SDS011;3780;42.424;25.636;2023-07-31T16:35:06;21.88;;;12.40;;
7477;SDS011;3780;42.424;25.636;2023-07-31T16:37:32;14.20;;;9.68;;
7477;SDS011;3780;42.424;25.636;2023-07-31T16:39:57;11.98;;;8.77;;
7477;SDS011;3780;42.424;25.636;2023-07-31T16:42:23;11.43;;;7.82;;
7477;SDS011;3780;42.424;25.636;2023-07-31T16:44:48;12.27;;;8.60;;
7477;SDS011;3780;42.424;25.636;2023-07-31T16:47:14;12.45;;;8.15;;
7477;SDS011;3780;42.424;25.636;2023-07-31T16:49:39;14.57;;;9.10;;
7477;SDS011;3780;42.424;25.636;2023-07-31T16:52:05;16.58;;;10.60;;
7477;SDS011;3780;42.424;25.636;2023-07-31T16:54:31;17.52;;;10.07;;
7477;SDS011;3780;42.424;25.636;2023-07-31T16:56:57;10.25;;;7.50;;
7477;SDS011;3780;42.424;25.636;2023-07-31T16:59:23;9.10;;;6.75;;
7477;SDS011;3780;42.424;25.636;2023-07-31T17:01:48;15.90;;;8.93;;
7477;SDS011;3780;42.424;25.636;2023-07-31T17:04:13;17.77;;;10.10;;
7477;SDS011;3780;42.424;25.636;2023-07-31T17:06:39;20.60;;;9.45;;
7477;SDS011;3780;42.424;25.636;2023-07-31T17:09:05;13.88;;;8.85;;
7477;SDS011;3780;42.424;25.636;2023-07-31T17:11:30;16.33;;;8.40;;
7477;SDS011;3780;42.424;25.636;2023-07-31T17:13:56;17.60;;;9.18;;
7477;SDS011;3780;42.424;25.636;2023-07-31T17:16:21;18.65;;;9.93;;
7477;SDS011;3780;42.424;25.636;2023-07-31T17:18:47;15.73;;;8.70;;
7477;SDS011;3780;42.424;25.636;2023-07-31T17:21:13;22.42;;;10.80;;
7477;SDS011;3780;42.424;25.636;2023-07-31T17:23:38;16.17;;;10.20;;
7477;SDS011;3780;42.424;25.636;2023-07-31T17:26:03;17.38;;;9.63;;
7477;SDS011;3780;42.424;25.636;2023-07-31T17:28:30;15.77;;;9.38;;
7477;SDS011;3780;42.424;25.636;2023-07-31T17:30:56;14.30;;;8.07;;
7477;SDS011;3780;42.424;25.636;2023-07-31T17:33:22;11.38;;;8.38;;
7477;SDS011;3780;42.424;25.636;2023-07-31T17:35:48;19.58;;;8.82;;
7477;SDS011;3780;42.424;25.636;2023-07-31T17:38:13;12.52;;;9.00;;
7477;SDS011;3780;42.424;25.636;2023-07-31T17:40:38;10.25;;;8.05;;
7477;SDS011;3780;42.424;25.636;2023-07-31T17:43:03;10.50;;;7.80;;
7477;SDS011;3780;42.424;25.636;2023-07-31T17:45:29;8.80;;;7.90;;
7477;SDS011;3780;42.424;25.636;2023-07-31T17:47:55;9.02;;;7.22;;
7477;SDS011;3780;42.424;25.636;2023-07-31T17:50:20;8.07;;;7.35;;
7477;SDS011;3780;42.424;25.636;2023-07-31T17:52:46;8.18;;;7.38;;
7477;SDS011;3780;42.424;25.636;2023-07-31T17:55:11;9.00;;;7.93;;
7477;SDS011;3780;42.424;25.636;2023-07-31T17:57:36;9.90;;;7.68;;
7477;SDS011;3780;42.424;25.636;2023-07-31T18:00:02;9.48;;;7.88;;
7477;SDS011;3780;42.424;25.636;2023-07-31T18:02:28;10.98;;;8.73;;
7477;SDS011;3780;42.424;25.636;2023-07-31T18:04:54;9.63;;;8.20;;
7477;SDS011;3780;42.424;25.636;2023-07-31T18:07:19;9.07;;;8.15;;
7477;SDS011;3780;42.424;25.636;2023-07-31T18:09:45;16.38;;;14.63;;
7477;SDS011;3780;42.424;25.636;2023-07-31T18:12:13;10.38;;;8.80;;
7477;SDS011;3780;42.424;25.636;2023-07-31T18:14:38;10.07;;;8.57;;
7477;SDS011;3780;42.424;25.636;2023-07-31T18:17:05;10.98;;;8.85;;
7477;SDS011;3780;42.424;25.636;2023-07-31T18:19:31;9.90;;;8.85;;
7477;SDS011;3780;42.424;25.636;2023-07-31T18:21:56;12.88;;;8.88;;
7477;SDS011;3780;42.424;25.636;2023-07-31T18:24:22;11.20;;;9.57;;
7477;SDS011;3780;42.424;25.636;2023-07-31T18:26:48;10.23;;;8.90;;
7477;SDS011;3780;42.424;25.636;2023-07-31T18:29:13;10.85;;;9.48;;
7477;SDS011;3780;42.424;25.636;2023-07-31T18:31:38;13.93;;;9.93;;
7477;SDS011;3780;42.424;25.636;2023-07-31T18:34:04;14.45;;;8.82;;
7477;SDS011;3780;42.424;25.636;2023-07-31T18:36:29;10.88;;;8.25;;
7477;SDS011;3780;42.424;25.636;2023-07-31T18:38:55;9.75;;;7.78;;
7477;SDS011;3780;42.424;25.636;2023-07-31T18:41:20;11.70;;;7.40;;
7477;SDS011;3780;42.424;25.636;2023-07-31T18:43:45;9.20;;;8.00;;
7477;SDS011;3780;42.424;25.636;2023-07-31T18:46:11;9.63;;;7.68;;
7477;SDS011;3780;42.424;25.636;2023-07-31T18:48:37;9.43;;;8.32;;
7477;SDS011;3780;42.424;25.636;2023-07-31T18:51:02;10.45;;;8.55;;
7477;SDS011;3780;42.424;25.636;2023-07-31T18:53:27;11.65;;;8.40;;
7477;SDS011;3780;42.424;25.636;2023-07-31T18:55:53;11.98;;;8.75;;
7477;SDS011;3780;42.424;25.636;2023-07-31T18:58:18;9.73;;;8.70;;
7477;SDS011;3780;42.424;25.636;2023-07-31T19:00:43;15.20;;;9.45;;
7477;SDS011;3780;42.424;25.636;2023-07-31T19:03:09;12.32;;;8.30;;
7477;SDS011;3780;42.424;25.636;2023-07-31T19:05:38;9.98;;;7.85;;
7477;SDS011;3780;42.424;25.636;2023-07-31T19:08:03;12.48;;;9.25;;
7477;SDS011;3780;42.424;25.636;2023-07-31T19:10:33;14.07;;;9.82;;
7477;SDS011;3780;42.424;25.636;2023-07-31T19:12:58;15.43;;;9.38;;
7477;SDS011;3780;42.424;25.636;2023-07-31T19:15:24;14.13;;;9.25;;
7477;SDS011;3780;42.424;25.636;2023-07-31T19:17:49;10.73;;;8.00;;
7477;SDS011;3780;42.424;25.636;2023-07-31T19:20:14;15.30;;;8.38;;
7477;SDS011;3780;42.424;25.636;2023-07-31T19:22:40;10.55;;;7.75;;
7477;SDS011;3780;42.424;25.636;2023-07-31T19:25:05;10.65;;;7.10;;
7477;SDS011;3780;42.424;25.636;2023-07-31T19:27:31;10.25;;;7.82;;
7477;SDS011;3780;42.424;25.636;2023-07-31T19:29:56;10.52;;;7.68;;
7477;SDS011;3780;42.424;25.636;2023-07-31T19:32:22;8.98;;;7.05;;
7477;SDS011;3780;42.424;25.636;2023-07-31T19:34:48;10.57;;;9.50;;
7477;SDS011;3780;42.424;25.636;2023-07-31T19:37:13;12.38;;;11.18;;
7477;SDS011;3780;42.424;25.636;2023-07-31T19:39:39;13.23;;;8.18;;
7477;SDS011;3780;42.424;25.636;2023-07-31T19:42:04;9.48;;;7.15;;
7477;SDS011;3780;42.424;25.636;2023-07-31T19:44:29;9.38;;;7.20;;
7477;SDS011;3780;42.424;25.636;2023-07-31T19:46:55;7.63;;;6.93;;
7477;SDS011;3780;42.424;25.636;2023-07-31T19:49:20;10.75;;;7.40;;
7477;SDS011;3780;42.424;25.636;2023-07-31T19:51:45;7.70;;;6.88;;
7477;SDS011;3780;42.424;25.636;2023-07-31T19:54:11;8.68;;;7.00;;
7477;SDS011;3780;42.424;25.636;2023-07-31T19:56:36;8.43;;;7.00;;
7477;SDS011;3780;42.424;25.636;2023-07-31T19:59:01;8.75;;;7.30;;
7477;SDS011;3780;42.424;25.636;2023-07-31T20:01:27;7.65;;;6.93;;
7477;SDS011;3780;42.424;25.636;2023-07-31T20:03:52;8.35;;;7.05;;
7477;SDS011;3780;42.424;25.636;2023-07-31T20:06:18;9.88;;;7.32;;
7477;SDS011;3780;42.424;25.636;2023-07-31T20:08:43;11.35;;;7.50;;
7477;SDS011;3780;42.424;25.636;2023-07-31T20:11:08;7.95;;;7.15;;
7477;SDS011;3780;42.424;25.636;2023-07-31T20:13:34;8.07;;;7.30;;
7477;SDS011;3780;42.424;25.636;2023-07-31T20:15:59;12.07;;;7.25;;
7477;SDS011;3780;42.424;25.636;2023-07-31T20:18:26;9.40;;;7.45;;
7477;SDS011;3780;42.424;25.636;2023-07-31T20:20:52;9.82;;;7.28;;
7477;SDS011;3780;42.424;25.636;2023-07-31T20:23:17;11.23;;;7.90;;
7477;SDS011;3780;42.424;25.636;2023-07-31T20:25:42;10.02;;;7.22;;
7477;SDS011;3780;42.424;25.636;2023-07-31T20:28:07;9.57;;;6.97;;
7477;SDS011;3780;42.424;25.636;2023-07-31T20:30:33;8.10;;;7.20;;
7477;SDS011;3780;42.424;25.636;2023-07-31T20:32:58;7.78;;;6.93;;
7477;SDS011;3780;42.424;25.636;2023-07-31T20:35:25;12.70;;;7.80;;
7477;SDS011;3780;42.424;25.636;2023-07-31T20:37:50;8.05;;;7.32;;
7477;SDS011;3780;42.424;25.636;2023-07-31T20:40:15;8.23;;;7.45;;
7477;SDS011;3780;42.424;25.636;2023-07-31T20:42:41;8.95;;;8.05;;
7477;SDS011;3780;42.424;25.636;2023-07-31T20:45:06;10.48;;;8.05;;
7477;SDS011;3780;42.424;25.636;2023-07-31T20:47:32;9.68;;;8.77;;
7477;SDS011;3780;42.424;25.636;2023-07-31T20:49:57;8.73;;;7.93;;
7477;SDS011;3780;42.424;25.636;2023-07-31T20:52:22;9.68;;;7.68;;
7477;SDS011;3780;42.424;25.636;2023-07-31T20:54:47;12.38;;;7.72;;
7477;SDS011;3780;42.424;25.636;2023-07-31T20:57:13;8.02;;;7.32;;
7477;SDS011;3780;42.424;25.636;2023-07-31T20:59:39;11.18;;;7.53;;
7477;SDS011;3780;42.424;25.636;2023-07-31T21:02:04;8.27;;;7.30;;
7477;SDS011;3780;42.424;25.636;2023-07-31T21:04:29;8.75;;;7.57;;
7477;SDS011;3780;42.424;25.636;2023-07-31T21:06:55;8.68;;;7.68;;
7477;SDS011;3780;42.424;25.636;2023-07-31T21:09:20;10.02;;;9.02;;
7477;SDS011;3780;42.424;25.636;2023-07-31T21:11:45;12.00;;;9.50;;